Jack Robertson — WDE5993 — position and weather

sailwx.info

Track history (hours):
 
Tides and Currents Weather Stations Pressure Air Temp Water Temp Dewpoint Dewpoint Depression Visibility Wind Speed Wind Dir Waves Ship Positions

Oceanographic research ship Jack Robertson (United States)

Owner: University of Washington Applied Physics Laboratory, Seattle, WA. More information available from US FCC via Universal Licensing System and Coast Guard Vessel Documentation Center.

Last reported at 2018-May-18 19:08 UTC. Time now 2018-May-20 17:43 UTC.
Position N 47°39' W 122°19'.

; draft 1.7 m.

Type: Other ship. MMSI: 367374350.

Date/timePositionNaut miles runAvg speedWind from/ knotsBaromVisibWave heightAir tempDewpointWater temp
2018-May-18 19:08N 47°39' W 122°19'0 0.0
2018-May-18 19:00N 47°39' W 122°19'  
2018-May-11 22:39N 47°39' W 122°19'0 1.1
2018-May-11 22:30N 47°39' W 122°19'2 4.9
2018-May-11 22:00N 47°40' W 122°23'1 3.0
2018-May-11 21:30N 47°41' W 122°25'2 4.7
2018-May-11 21:00N 47°43' W 122°24'0 0.4
2018-May-11 20:31N 47°43' W 122°24'0 0.8
2018-May-11 20:00N 47°43' W 122°24'0 0.8
2018-May-11 19:30N 47°43' W 122°24'0 0.1
2018-May-11 19:01N 47°43' W 122°24'0 0.5
2018-May-11 18:30N 47°43' W 122°24'0 0.4
2018-May-11 18:00N 47°43' W 122°24'0 0.7
2018-May-11 17:31N 47°43' W 122°24'0 0.5
2018-May-11 17:00N 47°43' W 122°24'0 0.3
2018-May-11 16:30N 47°43' W 122°24'0 0.3
2018-May-11 16:00N 47°43' W 122°24'0 0.4
2018-May-11 15:30N 47°43' W 122°24'2 3.7
2018-May-11 15:00N 47°42' W 122°24'2 3.3
2018-May-11 14:30N 47°40' W 122°24'3 5.2
2018-May-11 14:01N 47°39' W 122°21'  
Track history (hours):
 
Tides and Currents Weather Stations Pressure Air Temp Water Temp Dewpoint Dewpoint Depression Visibility Wind Speed Wind Dir Waves Ship Positions

Oceanographic research ship Jack Robertson (United States)

Owner: University of Washington Applied Physics Laboratory, Seattle, WA. More information available from US FCC via Universal Licensing System and Coast Guard Vessel Documentation Center.

Last reported at 2018-May-18 19:08 UTC. Time now 2018-May-20 17:43 UTC.
Position N 47°39' W 122°19'.

; draft 1.7 m.

Type: Other ship. MMSI: 367374350.

Date/timePositionNaut miles runAvg speedWind from/ knotsBaromVisibWave heightAir tempDewpointWater temp
2018-May-18 19:08N 47°39' W 122°19'0 0.0
2018-May-18 19:00N 47°39' W 122°19'  
2018-May-11 22:39N 47°39' W 122°19'0 1.1
2018-May-11 22:30N 47°39' W 122°19'2 4.9
2018-May-11 22:00N 47°40' W 122°23'1 3.0
2018-May-11 21:30N 47°41' W 122°25'2 4.7
2018-May-11 21:00N 47°43' W 122°24'0 0.4
2018-May-11 20:31N 47°43' W 122°24'0 0.8
2018-May-11 20:00N 47°43' W 122°24'0 0.8
2018-May-11 19:30N 47°43' W 122°24'0 0.1
2018-May-11 19:01N 47°43' W 122°24'0 0.5
2018-May-11 18:30N 47°43' W 122°24'0 0.4
2018-May-11 18:00N 47°43' W 122°24'0 0.7
2018-May-11 17:31N 47°43' W 122°24'0 0.5
2018-May-11 17:00N 47°43' W 122°24'0 0.3
2018-May-11 16:30N 47°43' W 122°24'0 0.3
2018-May-11 16:00N 47°43' W 122°24'0 0.4
2018-May-11 15:30N 47°43' W 122°24'2 3.7
2018-May-11 15:00N 47°42' W 122°24'2 3.3
2018-May-11 14:30N 47°40' W 122°24'3 5.2
2018-May-11 14:01N 47°39' W 122°21'  

Dump ship's entire track history